createdAt,value
2023-11-16T00:01:59.890Z,101636.25
2023-11-16T00:04:29.570Z,101637.21
2023-11-16T00:06:57.255Z,101648.70
2023-11-16T00:09:24.672Z,101654.30
2023-11-16T00:11:51.988Z,101650.46
2023-11-16T00:14:19.093Z,101650.52
2023-11-16T00:16:52.314Z,101645.61
2023-11-16T00:19:23.631Z,101646.26
2023-11-16T00:21:52.072Z,101650.68
2023-11-16T00:24:21.012Z,101644.98
2023-11-16T00:26:48.187Z,101638.42
2023-11-16T00:29:17.794Z,101634.86
2023-11-16T00:31:46.263Z,101636.52
2023-11-16T00:34:13.521Z,101633.02
2023-11-16T00:36:41.203Z,101632.46
2023-11-16T00:39:09.500Z,101626.82
2023-11-16T00:41:36.908Z,101624.70
2023-11-16T00:44:06.597Z,101621.44
2023-11-16T00:46:37.550Z,101623.42
2023-11-16T00:49:05.638Z,101621.33
2023-11-16T00:51:33.701Z,101614.25
2023-11-16T00:54:01.358Z,101611.02
2023-11-16T00:56:28.624Z,101614.69
2023-11-16T00:58:57.008Z,101629.80
2023-11-16T01:01:25.403Z,101640.14
2023-11-16T01:03:57.530Z,101628.58
2023-11-16T01:06:29.797Z,101612.77
2023-11-16T01:08:57.642Z,101606.70
2023-11-16T01:11:31.081Z,101614.58
2023-11-16T01:14:00.202Z,101624.05
2023-11-16T01:16:32.177Z,101615.59
2023-11-16T01:19:01.805Z,101606.38
2023-11-16T01:21:31.663Z,101594.92
2023-11-16T01:24:06.659Z,101602.50
2023-11-16T01:26:35.479Z,101616.17
2023-11-16T01:29:10.766Z,101625.70
2023-11-16T01:31:41.766Z,101617.39
2023-11-16T01:34:12.112Z,101605.58
2023-11-16T01:36:41.173Z,101607.28
2023-11-16T01:39:09.166Z,101613.30
2023-11-16T01:41:37.644Z,101615.06
2023-11-16T01:44:06.737Z,101609.21
2023-11-16T01:46:35.690Z,101605.75
2023-11-16T01:49:03.407Z,101602.66
2023-11-16T01:51:31.692Z,101596.28
2023-11-16T01:54:01.599Z,101595.75
2023-11-16T01:56:35.214Z,101596.06
2023-11-16T01:59:04.387Z,101595.74
2023-11-16T02:01:34.631Z,101597.91
2023-11-16T02:04:09.395Z,101597.49
2023-11-16T02:06:41.965Z,101589.73
2023-11-16T02:09:10.065Z,101589.79
2023-11-16T02:11:38.553Z,101587.60
2023-11-16T02:14:05.916Z,101595.48
2023-11-16T02:16:33.241Z,101596.95
2023-11-16T02:19:27.935Z,101600.80
2023-11-16T02:21:56.930Z,101601.77
2023-11-16T02:24:24.159Z,101604.32
2023-11-16T02:26:53.016Z,101604.73
2023-11-16T02:29:20.150Z,101601.60
2023-11-16T02:31:48.160Z,101606.98
2023-11-16T02:34:15.360Z,101609.20
2023-11-16T02:36:42.499Z,101614.11
2023-11-16T02:39:10.068Z,101603.30
2023-11-16T02:41:40.597Z,101593.86
2023-11-16T02:44:09.117Z,101586.20
2023-11-16T02:46:36.308Z,101583.81
2023-11-16T02:49:03.531Z,101591.01
2023-11-16T02:51:34.185Z,101593.23
2023-11-16T02:54:08.218Z,101590.09
2023-11-16T02:56:35.636Z,101596.48
2023-11-16T02:59:03.490Z,101601.21
2023-11-16T03:01:34.588Z,101606.06
2023-11-16T03:04:02.054Z,101614.37
2023-11-16T03:06:29.371Z,101608.52
2023-11-16T03:08:57.717Z,101604.95
2023-11-16T03:11:24.756Z,101601.70
2023-11-16T03:13:51.855Z,101604.52
2023-11-16T03:16:19.401Z,101602.14
2023-11-16T03:18:46.550Z,101605.59
2023-11-16T03:21:13.744Z,101610.44
2023-11-16T03:23:40.881Z,101612.66
2023-11-16T03:26:07.976Z,101609.31
2023-11-16T03:28:37.405Z,101603.27
2023-11-16T03:31:08.304Z,101602.77
2023-11-16T03:33:35.917Z,101614.70
2023-11-16T03:36:03.081Z,101639.02
2023-11-16T03:38:31.985Z,101635.40
2023-11-16T03:40:59.275Z,101606.80
2023-11-16T03:43:26.332Z,101588.54
2023-11-16T03:45:53.699Z,101607.77
2023-11-16T03:48:24.168Z,101631.77
2023-11-16T03:50:51.582Z,101625.44
2023-11-16T03:53:18.999Z,101609.37
2023-11-16T03:55:46.331Z,101613.83
2023-11-16T03:58:13.583Z,101620.80
2023-11-16T04:00:40.801Z,101618.52
2023-11-16T04:03:08.557Z,101614.47
2023-11-16T04:05:37.048Z,101616.77
2023-11-16T04:08:06.939Z,101617.73
2023-11-16T04:10:34.029Z,101616.98
2023-11-16T04:13:04.334Z,101612.45
2023-11-16T04:15:32.678Z,101612.66
2023-11-16T04:18:01.034Z,101616.71
2023-11-16T04:20:29.621Z,101616.44
2023-11-16T04:22:56.937Z,101610.69
2023-11-16T04:25:24.583Z,101603.45
2023-11-16T04:27:52.001Z,101609.20
2023-11-16T04:30:22.331Z,101616.55
2023-11-16T04:32:50.937Z,101614.95
2023-11-16T04:35:19.338Z,101606.70
2023-11-16T04:37:47.680Z,101603.40
2023-11-16T04:40:17.999Z,101610.53
2023-11-16T04:42:45.343Z,101616.66
2023-11-16T04:45:14.300Z,101624.10
2023-11-16T04:47:45.544Z,101625.39
2023-11-16T04:50:15.224Z,101621.83
2023-11-16T04:52:42.304Z,101617.19
2023-11-16T04:55:13.857Z,101623.53
2023-11-16T04:57:41.729Z,101636.72
2023-11-16T05:00:12.512Z,101641.20
2023-11-16T05:02:39.774Z,101636.25
2023-11-16T05:05:08.354Z,101628.89
2023-11-16T05:07:35.959Z,101630.96
2023-11-16T05:10:03.608Z,101636.35
2023-11-16T05:12:31.079Z,101639.98
2023-11-16T05:14:58.244Z,101648.28
2023-11-16T05:17:25.162Z,101653.86
2023-11-16T05:19:53.315Z,101650.57
2023-11-16T05:22:20.386Z,101650.52
2023-11-16T05:24:47.533Z,101652.11
2023-11-16T05:27:14.643Z,101657.39
2023-11-16T05:29:41.745Z,101661.52
2023-11-16T05:32:08.909Z,101655.41
2023-11-16T05:34:35.985Z,101654.51
2023-11-16T05:37:04.329Z,101658.61
2023-11-16T05:39:32.269Z,101661.79
2023-11-16T05:41:59.288Z,101668.77
2023-11-16T05:44:26.588Z,101670.11
2023-11-16T05:46:54.077Z,101674.85
2023-11-16T05:49:21.078Z,101673.99
2023-11-16T05:51:48.527Z,101673.41
2023-11-16T05:54:16.549Z,101675.54
2023-11-16T05:56:47.114Z,101680.48
2023-11-16T05:59:15.417Z,101684.31
2023-11-16T06:01:46.627Z,101684.21
2023-11-16T06:04:13.872Z,101688.80
2023-11-16T06:06:41.796Z,101691.52
2023-11-16T06:09:08.857Z,101692.41
2023-11-16T06:11:36.082Z,101695.23
2023-11-16T06:14:09.419Z,101697.73
2023-11-16T06:16:45.192Z,101694.70
2023-11-16T06:19:15.135Z,101691.51
2023-11-16T06:21:43.186Z,101694.17
2023-11-16T06:24:10.720Z,101701.67
2023-11-16T06:26:38.008Z,101705.09
2023-11-16T06:29:07.595Z,101704.39
2023-11-16T06:31:35.102Z,101704.39
2023-11-16T06:34:02.151Z,101708.00
2023-11-16T06:36:29.792Z,101712.64
2023-11-16T06:38:58.345Z,101712.44
2023-11-16T06:41:26.735Z,101713.73
2023-11-16T06:43:55.553Z,101718.52
2023-11-16T06:46:24.423Z,101718.39
2023-11-16T06:48:52.320Z,101723.45
2023-11-16T06:51:19.981Z,101727.61
2023-11-16T06:53:47.925Z,101728.83
2023-11-16T06:56:18.358Z,101725.58
2023-11-16T06:58:45.614Z,101728.03
2023-11-16T07:01:12.776Z,101728.40
2023-11-16T07:03:40.745Z,101730.59
2023-11-16T07:06:08.151Z,101730.70
2023-11-16T07:08:35.553Z,101742.41
2023-11-16T07:11:02.752Z,101746.02
2023-11-16T07:13:29.982Z,101755.07
2023-11-16T07:15:58.627Z,101762.04
2023-11-16T07:18:26.073Z,101764.34
2023-11-16T07:20:53.297Z,101769.81
2023-11-16T07:23:21.660Z,101772.79
2023-11-16T07:25:51.001Z,101774.02
2023-11-16T07:28:21.318Z,101777.15
2023-11-16T07:30:49.876Z,101781.94
2023-11-16T07:33:17.133Z,101789.45
2023-11-16T07:35:47.521Z,101788.71
2023-11-16T07:38:15.240Z,101791.35
2023-11-16T07:40:45.305Z,101797.11
2023-11-16T07:43:12.523Z,101799.60
2023-11-16T07:45:39.596Z,101801.68
2023-11-16T07:48:06.842Z,101798.11
2023-11-16T07:50:34.080Z,101797.97
2023-11-16T07:53:05.309Z,101803.04
2023-11-16T07:55:36.230Z,101805.10
2023-11-16T07:58:04.817Z,101808.57
2023-11-16T08:00:32.948Z,101810.43
2023-11-16T08:03:19.110Z,101814.84
2023-11-16T08:05:48.534Z,101815.79
2023-11-16T08:08:20.654Z,101818.36
2023-11-16T08:10:50.063Z,101819.69
2023-11-16T08:13:20.672Z,101822.71
2023-11-16T08:15:55.254Z,101826.24
2023-11-16T08:18:23.307Z,101829.00
2023-11-16T08:20:50.570Z,101832.41
2023-11-16T08:23:19.577Z,101836.42
2023-11-16T08:25:48.909Z,101840.67
2023-11-16T08:28:16.388Z,101835.57
2023-11-16T08:30:44.605Z,101832.10
2023-11-16T08:33:12.790Z,101827.57
2023-11-16T08:35:39.922Z,101823.59
2023-11-16T08:38:10.376Z,101827.25
2023-11-16T08:40:38.082Z,101828.53
2023-11-16T08:43:12.683Z,101829.17
2023-11-16T08:45:41.459Z,101829.32
2023-11-16T08:48:10.350Z,101824.96
2023-11-16T08:50:38.750Z,101829.70
2023-11-16T08:53:09.294Z,101828.90
2023-11-16T08:55:36.367Z,101833.53
2023-11-16T08:58:03.689Z,101834.76
2023-11-16T09:00:37.544Z,101835.55
2023-11-16T09:03:09.392Z,101833.95
2023-11-16T09:05:38.767Z,101833.64
2023-11-16T09:08:06.626Z,101830.71
2023-11-16T09:10:33.736Z,101829.12
2023-11-16T09:13:02.057Z,101823.21
2023-11-16T09:15:30.415Z,101825.48
2023-11-16T09:18:01.265Z,101825.13
2023-11-16T09:20:29.102Z,101832.30
2023-11-16T09:23:00.722Z,101831.90
2023-11-16T09:25:31.100Z,101831.25
2023-11-16T09:28:00.705Z,101829.61
2023-11-16T09:30:29.471Z,101823.16
2023-11-16T09:32:59.245Z,101824.98
2023-11-16T09:35:29.236Z,101826.48
2023-11-16T09:37:58.531Z,101831.59
2023-11-16T09:40:30.924Z,101828.07
2023-11-16T09:42:59.580Z,101833.29
2023-11-16T09:45:31.855Z,101828.23
2023-11-16T09:48:05.628Z,101829.94
2023-11-16T09:50:36.729Z,101829.09
2023-11-16T09:53:08.143Z,101831.38
2023-11-16T09:55:39.360Z,101830.80
2023-11-16T09:58:09.758Z,101826.59
2023-11-16T10:00:37.731Z,101825.90
2023-11-16T10:03:08.658Z,101821.96
2023-11-16T10:05:41.112Z,101819.94
2023-11-16T10:08:16.039Z,101813.70
2023-11-16T10:11:13.058Z,101813.43
2023-11-16T10:13:42.203Z,101810.81
2023-11-16T10:16:11.401Z,101809.23
2023-11-16T10:18:43.423Z,101808.42
2023-11-16T10:21:15.941Z,101803.95
2023-11-16T10:23:43.204Z,101805.05
2023-11-16T10:26:13.370Z,101803.99
2023-11-16T10:28:40.616Z,101809.58
2023-11-16T10:31:09.669Z,101805.86
2023-11-16T10:33:38.095Z,101804.09
2023-11-16T10:36:09.305Z,101804.45
2023-11-16T10:38:39.715Z,101800.05
2023-11-16T10:41:07.320Z,101798.55
2023-11-16T10:43:36.450Z,101800.10
2023-11-16T10:46:06.685Z,101797.50
2023-11-16T10:48:34.431Z,101798.66
2023-11-16T10:51:03.058Z,101797.12
2023-11-16T10:53:35.220Z,101799.36
2023-11-16T10:56:08.784Z,101794.34
2023-11-16T10:58:41.490Z,101792.55
2023-11-16T11:01:15.773Z,101791.81
2023-11-16T11:03:51.201Z,101791.01
2023-11-16T11:06:21.131Z,101793.88
2023-11-16T11:08:50.441Z,101791.06
2023-11-16T11:11:28.872Z,101789.52
2023-11-16T11:13:59.443Z,101787.39
2023-11-16T11:16:29.196Z,101785.38
2023-11-16T11:18:59.347Z,101786.42
2023-11-16T11:21:32.233Z,101783.35
2023-11-16T11:24:07.791Z,101782.17
2023-11-16T11:26:54.053Z,101781.10
2023-11-16T11:29:25.416Z,101779.45
2023-11-16T11:32:08.894Z,101779.52
2023-11-16T11:34:38.693Z,101780.27
2023-11-16T11:37:15.408Z,101775.56
2023-11-16T11:39:49.461Z,101771.84
2023-11-16T11:42:18.687Z,101765.34
2023-11-16T11:44:58.075Z,101764.98
2023-11-16T11:47:30.127Z,101766.35
2023-11-16T11:49:58.091Z,101770.55
2023-11-16T11:52:29.569Z,101770.36
2023-11-16T11:54:57.094Z,101772.73
2023-11-16T11:57:31.667Z,101764.70
2023-11-16T12:00:07.843Z,101764.33
2023-11-16T12:02:35.782Z,101762.04
2023-11-16T12:05:03.890Z,101759.11
2023-11-16T12:07:32.678Z,101760.13
2023-11-16T12:09:59.982Z,101756.02
2023-11-16T12:12:27.115Z,101764.05
2023-11-16T12:14:55.378Z,101764.23
2023-11-16T12:17:24.428Z,101765.07
2023-11-16T12:19:53.578Z,101765.34
2023-11-16T12:22:24.244Z,101767.73
2023-11-16T12:24:53.048Z,101760.85
2023-11-16T12:27:22.563Z,101756.49
2023-11-16T12:29:58.136Z,101752.19
2023-11-16T12:32:27.282Z,101751.27
2023-11-16T12:34:56.019Z,101748.67
2023-11-16T12:37:23.626Z,101746.61
2023-11-16T12:39:52.141Z,101748.84
2023-11-16T12:42:24.722Z,101749.58
2023-11-16T12:44:54.306Z,101752.34
2023-11-16T12:47:23.689Z,101749.25
2023-11-16T12:49:56.057Z,101745.90
2023-11-16T12:52:24.971Z,101740.79
2023-11-16T12:54:55.555Z,101744.08
2023-11-16T12:57:25.044Z,101745.20
2023-11-16T12:59:54.132Z,101747.66
2023-11-16T13:02:21.821Z,101743.02
2023-11-16T13:04:49.094Z,101740.89
2023-11-16T13:07:16.579Z,101736.84
2023-11-16T13:09:46.238Z,101732.42
2023-11-16T13:12:21.911Z,101727.11
2023-11-16T13:14:50.863Z,101726.10
2023-11-16T13:17:18.287Z,101724.19
2023-11-16T13:19:45.976Z,101725.30
2023-11-16T13:22:13.107Z,101724.86
2023-11-16T13:24:43.028Z,101725.77
2023-11-16T13:27:10.686Z,101728.27
2023-11-16T13:29:39.252Z,101721.98
2023-11-16T13:32:06.892Z,101725.34
2023-11-16T13:34:34.636Z,101719.87
2023-11-16T13:37:02.151Z,101720.65
2023-11-16T13:39:29.987Z,101719.73
2023-11-16T13:41:57.601Z,101719.21
2023-11-16T13:44:26.001Z,101722.63
2023-11-16T13:46:53.782Z,101725.94
2023-11-16T13:49:21.196Z,101723.55
2023-11-16T13:51:49.671Z,101727.70
2023-11-16T13:54:17.402Z,101725.29
2023-11-16T13:56:50.356Z,101731.41
2023-11-16T13:59:22.041Z,101732.69
2023-11-16T14:01:51.125Z,101733.27
2023-11-16T14:04:18.994Z,101738.06
2023-11-16T14:06:46.471Z,101734.65
2023-11-16T14:09:15.097Z,101734.98
2023-11-16T14:11:42.333Z,101733.60
2023-11-16T14:14:12.677Z,101731.63
2023-11-16T14:16:40.563Z,101733.01
2023-11-16T14:19:09.698Z,101735.73
2023-11-16T14:21:37.018Z,101738.08
2023-11-16T14:24:08.502Z,101743.72
2023-11-16T14:26:36.874Z,101746.06
2023-11-16T14:29:05.223Z,101743.39
2023-11-16T14:31:32.606Z,101743.29
2023-11-16T14:33:59.879Z,101741.59
2023-11-16T14:36:27.466Z,101745.73
2023-11-16T14:38:54.589Z,101745.21
2023-11-16T14:41:21.953Z,101747.11
2023-11-16T14:43:49.119Z,101745.95
2023-11-16T14:46:16.673Z,101746.69
2023-11-16T14:48:44.195Z,101741.52
2023-11-16T14:51:15.180Z,101741.15
2023-11-16T14:53:50.920Z,101734.61
2023-11-16T14:56:21.882Z,101736.64
2023-11-16T14:58:49.387Z,101739.46
2023-11-16T15:01:16.864Z,101738.60
2023-11-16T15:03:46.278Z,101738.02
2023-11-16T15:06:13.497Z,101741.10
2023-11-16T15:08:40.649Z,101739.83
2023-11-16T15:11:07.816Z,101737.38
2023-11-16T15:13:37.955Z,101739.40
2023-11-16T15:16:09.666Z,101747.27
2023-11-16T15:18:37.571Z,101751.38
2023-11-16T15:21:05.817Z,101754.09
2023-11-16T15:23:33.537Z,101752.48
2023-11-16T15:26:06.020Z,101756.21
2023-11-16T15:28:36.321Z,101755.63
2023-11-16T15:31:04.249Z,101760.27
2023-11-16T15:33:31.526Z,101758.45
2023-11-16T15:35:58.882Z,101762.88
2023-11-16T15:38:26.923Z,101762.70
2023-11-16T15:40:54.387Z,101759.00
2023-11-16T15:43:21.360Z,101759.27
2023-11-16T15:45:50.954Z,101756.06
2023-11-16T15:48:19.119Z,101756.02
2023-11-16T15:50:46.172Z,101752.71
2023-11-16T15:53:15.073Z,101748.61
2023-11-16T15:55:42.458Z,101753.09
2023-11-16T15:58:09.584Z,101754.75
2023-11-16T16:00:36.712Z,101758.25
2023-11-16T16:03:05.450Z,101759.42
2023-11-16T16:05:32.643Z,101760.55
2023-11-16T16:07:59.657Z,101762.10
2023-11-16T16:10:26.673Z,101759.11
2023-11-16T16:12:53.845Z,101762.95
2023-11-16T16:15:22.059Z,101759.48
2023-11-16T16:17:49.044Z,101758.67
2023-11-16T16:20:16.572Z,101759.58
2023-11-16T16:22:43.653Z,101761.77
2023-11-16T16:25:15.207Z,101760.22
2023-11-16T16:27:42.736Z,101755.75
2023-11-16T16:30:10.367Z,101755.12
2023-11-16T16:32:37.543Z,101756.29
2023-11-16T16:35:06.944Z,101757.61
2023-11-16T16:37:34.269Z,101758.71
2023-11-16T16:40:04.121Z,101756.60
2023-11-16T16:42:31.736Z,101757.77
2023-11-16T16:44:59.439Z,101758.45
2023-11-16T16:47:26.587Z,101762.86
2023-11-16T16:49:53.857Z,101763.94
2023-11-16T16:52:21.122Z,101766.38
2023-11-16T16:54:48.800Z,101764.66
2023-11-16T16:57:16.557Z,101765.52
2023-11-16T16:59:44.075Z,101763.24
2023-11-16T17:02:11.445Z,101765.42
2023-11-16T17:04:39.826Z,101768.17
2023-11-16T17:07:06.986Z,101768.50
2023-11-16T17:09:34.278Z,101774.84
2023-11-16T17:12:01.390Z,101773.67
2023-11-16T17:14:29.298Z,101773.83
2023-11-16T17:16:56.900Z,101773.25
2023-11-16T17:19:25.377Z,101775.21
2023-11-16T17:21:54.206Z,101777.89
2023-11-16T17:24:21.289Z,101775.70
2023-11-16T17:26:54.096Z,101775.77
2023-11-16T17:29:21.211Z,101775.02
2023-11-16T17:31:48.433Z,101775.77
2023-11-16T17:34:18.321Z,101775.02
2023-11-16T17:36:45.409Z,101780.34
2023-11-16T17:39:13.502Z,101782.85
2023-11-16T17:41:41.282Z,101782.16
2023-11-16T17:44:08.453Z,101780.88
2023-11-16T17:46:35.663Z,101780.02
2023-11-16T17:49:06.634Z,101783.92
2023-11-16T17:51:35.546Z,101781.67
2023-11-16T17:54:03.013Z,101782.31
2023-11-16T17:56:34.207Z,101778.27
2023-11-16T17:59:09.092Z,101779.23
2023-11-16T18:01:36.838Z,101775.23
2023-11-16T18:04:05.490Z,101775.48
2023-11-16T18:06:33.117Z,101778.69
2023-11-16T18:09:00.497Z,101780.23
2023-11-16T18:11:28.569Z,101781.30
2023-11-16T18:13:56.872Z,101781.77
2023-11-16T18:16:26.098Z,101786.58
2023-11-16T18:18:59.597Z,101788.90
2023-11-16T18:21:26.826Z,101788.91
2023-11-16T18:23:55.993Z,101788.73
2023-11-16T18:26:24.238Z,101788.58
2023-11-16T18:28:57.356Z,101788.64
2023-11-16T18:31:26.754Z,101786.40
2023-11-16T18:33:56.288Z,101781.72
2023-11-16T18:36:24.370Z,101781.62
2023-11-16T18:38:51.502Z,101782.52
2023-11-16T18:41:18.523Z,101786.21
2023-11-16T18:43:47.367Z,101781.56
2023-11-16T18:46:16.826Z,101781.20
2023-11-16T18:48:44.067Z,101787.80
2023-11-16T18:51:11.304Z,101789.08
2023-11-16T18:53:40.425Z,101784.82
2023-11-16T18:56:14.304Z,101784.71
2023-11-16T18:58:42.650Z,101784.44
2023-11-16T19:01:13.173Z,101787.00
2023-11-16T19:03:41.830Z,101788.48
2023-11-16T19:06:10.140Z,101785.02
2023-11-16T19:08:38.831Z,101789.23
2023-11-16T19:11:08.405Z,101793.94
2023-11-16T19:13:35.499Z,101796.27
2023-11-16T19:16:02.720Z,101794.04
2023-11-16T19:18:29.955Z,101795.63
2023-11-16T19:20:57.957Z,101797.77
2023-11-16T19:23:26.002Z,101799.46
2023-11-16T19:25:54.070Z,101798.51
2023-11-16T19:28:25.073Z,101799.46
2023-11-16T19:30:52.464Z,101798.09
2023-11-16T19:33:21.363Z,101802.01
2023-11-16T19:35:48.555Z,101801.20
2023-11-16T19:38:15.862Z,101802.66
2023-11-16T19:40:43.268Z,101801.81
2023-11-16T19:43:12.581Z,101800.89
2023-11-16T19:45:41.142Z,101803.45
2023-11-16T19:48:13.174Z,101802.65
2023-11-16T19:50:43.167Z,101802.05
2023-11-16T19:53:10.368Z,101798.81
2023-11-16T19:55:41.202Z,101801.69
2023-11-16T19:58:13.814Z,101801.14
2023-11-16T20:00:43.050Z,101799.13
2023-11-16T20:03:11.781Z,101799.50
2023-11-16T20:05:39.347Z,101796.78
2023-11-16T20:08:06.581Z,101798.96
2023-11-16T20:10:41.242Z,101796.40
2023-11-16T20:13:10.028Z,101798.85
2023-11-16T20:15:37.750Z,101799.33
2023-11-16T20:18:05.194Z,101797.14
2023-11-16T20:20:42.416Z,101798.64
2023-11-16T20:23:15.150Z,101796.02
2023-11-16T20:25:42.949Z,101795.81
2023-11-16T20:28:10.343Z,101796.48
2023-11-16T20:30:37.845Z,101799.26
2023-11-16T20:33:05.054Z,101800.63
2023-11-16T20:35:35.124Z,101803.71
2023-11-16T20:38:06.651Z,101803.77
2023-11-16T20:40:34.959Z,101803.09
2023-11-16T20:43:03.152Z,101806.89
2023-11-16T20:45:31.788Z,101806.23
2023-11-16T20:47:59.212Z,101807.67
2023-11-16T20:50:26.596Z,101806.14
2023-11-16T20:52:54.246Z,101799.59
2023-11-16T20:55:21.557Z,101797.26
2023-11-16T20:57:48.846Z,101801.52
2023-11-16T21:00:19.906Z,101803.38
2023-11-16T21:02:51.897Z,101805.13
2023-11-16T21:05:19.637Z,101807.26
2023-11-16T21:07:50.189Z,101806.02
2023-11-16T21:10:17.937Z,101799.23
2023-11-16T21:12:48.482Z,101800.28
2023-11-16T21:15:15.987Z,101794.77
2023-11-16T21:17:44.077Z,101792.67
2023-11-16T21:20:14.123Z,101790.23
2023-11-16T21:22:43.606Z,101789.02
2023-11-16T21:25:13.686Z,101786.03
2023-11-16T21:27:41.719Z,101784.97
2023-11-16T21:30:17.444Z,101789.19
2023-11-16T21:32:44.967Z,101789.08
2023-11-16T21:35:28.034Z,101787.48
2023-11-16T21:38:04.682Z,101789.02
2023-11-16T21:40:39.730Z,101783.44
2023-11-16T21:43:08.779Z,101782.69
2023-11-16T21:45:39.266Z,101782.00
2023-11-16T21:48:14.088Z,101783.54
2023-11-16T21:50:41.842Z,101784.45
2023-11-16T21:53:13.580Z,101782.73
2023-11-16T21:55:43.051Z,101779.39
2023-11-16T21:58:11.442Z,101781.30
2023-11-16T22:00:39.442Z,101779.45
2023-11-16T22:03:09.325Z,101776.52
2023-11-16T22:05:39.556Z,101777.31
2023-11-16T22:08:06.950Z,101779.12
2023-11-16T22:10:40.567Z,101776.88
2023-11-16T22:13:12.071Z,101776.14
2023-11-16T22:15:39.896Z,101781.31
2023-11-16T22:18:08.762Z,101782.27
2023-11-16T22:20:36.684Z,101785.41
2023-11-16T22:23:04.455Z,101784.34
2023-11-16T22:25:34.763Z,101782.69
2023-11-16T22:28:02.571Z,101783.80
2023-11-16T22:30:32.801Z,101783.61
2023-11-16T22:33:02.343Z,101781.20
2023-11-16T22:35:29.730Z,101776.26
2023-11-16T22:37:57.536Z,101777.69
2023-11-16T22:40:25.280Z,101780.98
2023-11-16T22:42:52.519Z,101780.09
2023-11-16T22:45:19.809Z,101779.02
2023-11-16T22:47:47.772Z,101780.04
2023-11-16T22:50:15.882Z,101775.46
2023-11-16T22:52:43.968Z,101770.45
2023-11-16T22:55:14.156Z,101771.79
2023-11-16T22:57:45.317Z,101772.42
2023-11-16T23:00:33.407Z,101771.35
2023-11-16T23:03:00.608Z,101770.02
2023-11-16T23:05:27.964Z,101771.09
2023-11-16T23:07:59.261Z,101769.11
2023-11-16T23:10:31.787Z,101766.61
2023-11-16T23:13:04.359Z,101761.40
2023-11-16T23:15:31.641Z,101765.23
2023-11-16T23:17:58.971Z,101763.16
2023-11-16T23:20:26.228Z,101761.55
2023-11-16T23:22:53.784Z,101765.71
2023-11-16T23:25:22.059Z,101763.58
2023-11-16T23:27:50.052Z,101766.89
2023-11-16T23:30:17.244Z,101767.89
2023-11-16T23:32:45.216Z,101761.51
2023-11-16T23:35:14.837Z,101762.98
2023-11-16T23:37:42.395Z,101760.28
2023-11-16T23:40:13.406Z,101757.13
2023-11-16T23:42:42.293Z,101755.01
2023-11-16T23:45:11.841Z,101751.07
2023-11-16T23:47:41.653Z,101751.48
2023-11-16T23:50:10.659Z,101754.21
2023-11-16T23:52:38.027Z,101749.10
2023-11-16T23:55:07.999Z,101753.14
2023-11-16T23:57:35.067Z,101745.48
